createdAt,value
2018-11-03T00:01:01.731Z,4.72
2018-11-03T00:03:29.922Z,5.83
2018-11-03T00:05:58.201Z,7.37
2018-11-03T00:08:26.501Z,6.55
2018-11-03T00:10:54.675Z,7.03
2018-11-03T00:13:23.410Z,6.40
2018-11-03T00:15:51.587Z,5.45
2018-11-03T00:18:19.738Z,3.85
2018-11-03T00:20:47.922Z,5.92
2018-11-03T00:23:16.113Z,6.35
2018-11-03T00:25:44.297Z,5.78
2018-11-03T00:28:12.494Z,5.55
2018-11-03T00:30:40.679Z,4.83
2018-11-03T00:33:08.863Z,6.85
2018-11-03T00:35:37.057Z,4.67
2018-11-03T00:38:05.620Z,5.47
2018-11-03T00:40:33.791Z,5.58
2018-11-03T00:43:01.930Z,9.80
2018-11-03T00:45:30.201Z,5.45
2018-11-03T00:47:58.290Z,7.17
2018-11-03T00:50:26.474Z,8.53
2018-11-03T00:52:54.658Z,7.10
2018-11-03T00:55:22.847Z,7.95
2018-11-03T00:57:51.035Z,13.35
2018-11-03T01:00:19.451Z,9.23
2018-11-03T01:02:48.654Z,8.80
2018-11-03T01:05:16.869Z,7.28
2018-11-03T01:07:45.337Z,6.87
2018-11-03T01:10:13.515Z,9.13
2018-11-03T01:12:42.126Z,9.45
2018-11-03T01:15:16.050Z,9.73
2018-11-03T01:17:44.434Z,8.18
2018-11-03T01:20:13.961Z,6.92
2018-11-03T01:22:42.159Z,6.72
2018-11-03T01:25:10.538Z,6.50
2018-11-03T01:27:38.701Z,5.35
2018-11-03T01:30:09.699Z,6.62
2018-11-03T01:32:38.000Z,4.72
2018-11-03T01:35:06.970Z,7.83
2018-11-03T01:37:35.358Z,6.08
2018-11-03T01:40:03.562Z,6.55
2018-11-03T01:42:31.709Z,8.40
2018-11-03T01:44:59.929Z,7.20
2018-11-03T01:47:28.077Z,8.18
2018-11-03T01:49:56.274Z,6.78
2018-11-03T01:52:24.454Z,6.83
2018-11-03T01:54:52.554Z,7.47
2018-11-03T01:57:20.790Z,5.92
2018-11-03T01:59:48.933Z,9.23
2018-11-03T02:02:17.106Z,11.63
2018-11-03T02:04:45.291Z,9.80
2018-11-03T02:07:13.593Z,5.83
2018-11-03T02:09:41.774Z,5.53
2018-11-03T02:12:09.946Z,12.65
2018-11-03T02:14:38.138Z,5.78
2018-11-03T02:17:06.318Z,7.05
2018-11-03T02:19:34.542Z,7.17
2018-11-03T02:22:02.694Z,5.72
2018-11-03T02:24:30.887Z,5.87
2018-11-03T02:26:59.062Z,6.28
2018-11-03T02:29:27.158Z,6.37
2018-11-03T02:31:55.400Z,8.98
2018-11-03T02:34:23.535Z,4.78
2018-11-03T02:36:51.713Z,5.12
2018-11-03T02:39:19.918Z,4.65
2018-11-03T02:41:48.101Z,5.67
2018-11-03T02:44:16.309Z,6.08
2018-11-03T02:46:44.458Z,7.47
2018-11-03T02:49:12.610Z,5.20
2018-11-03T02:51:40.733Z,9.43
2018-11-03T02:54:08.949Z,6.53
2018-11-03T02:56:37.126Z,8.78
2018-11-03T02:59:05.331Z,5.50
2018-11-03T03:01:33.473Z,6.20
2018-11-03T03:04:01.570Z,8.50
2018-11-03T03:06:29.746Z,6.85
2018-11-03T03:08:57.845Z,6.37
2018-11-03T03:11:26.014Z,5.50
2018-11-03T03:13:54.099Z,5.83
2018-11-03T03:16:22.190Z,4.75
2018-11-03T03:18:50.366Z,4.70
2018-11-03T03:21:18.458Z,3.98
2018-11-03T03:23:46.542Z,6.67
2018-11-03T03:26:14.626Z,4.30
2018-11-03T03:28:42.829Z,4.22
2018-11-03T03:31:10.798Z,5.15
2018-11-03T03:33:38.975Z,6.78
2018-11-03T03:36:07.061Z,4.40
2018-11-03T03:38:35.137Z,5.08
2018-11-03T03:41:03.307Z,5.17
2018-11-03T03:43:31.451Z,3.92
2018-11-03T03:45:59.617Z,5.08
2018-11-03T03:48:27.790Z,5.92
2018-11-03T03:50:55.888Z,6.10
2018-11-03T03:53:23.957Z,5.85
2018-11-03T03:55:52.045Z,7.67
2018-11-03T03:58:20.124Z,5.65
2018-11-03T04:00:48.218Z,4.78
2018-11-03T04:03:16.292Z,6.00
2018-11-03T04:05:44.406Z,4.78
2018-11-03T04:08:12.575Z,6.58
2018-11-03T04:10:40.653Z,4.55
2018-11-03T04:13:08.733Z,9.70
2018-11-03T04:15:36.831Z,10.90
2018-11-03T04:18:05.096Z,11.12
2018-11-03T04:20:33.197Z,8.68
2018-11-03T04:23:01.281Z,10.03
2018-11-03T04:25:29.369Z,8.55
2018-11-03T04:27:57.588Z,7.92
2018-11-03T04:30:25.752Z,11.10
2018-11-03T04:32:53.931Z,6.35
2018-11-03T04:35:22.014Z,8.15
2018-11-03T04:37:50.097Z,10.13
2018-11-03T04:40:18.186Z,9.93
2018-11-03T04:42:46.259Z,8.68
2018-11-03T04:45:14.369Z,10.80
2018-11-03T04:47:42.446Z,8.70
2018-11-03T04:50:10.974Z,8.85
2018-11-03T04:52:39.250Z,7.15
2018-11-03T04:55:08.227Z,13.10
2018-11-03T04:57:36.323Z,10.20
2018-11-03T05:00:04.999Z,11.28
2018-11-03T05:02:33.094Z,10.88
2018-11-03T05:05:01.184Z,7.50
2018-11-03T05:07:29.275Z,9.93
2018-11-03T05:09:57.360Z,8.00
2018-11-03T05:12:25.419Z,9.40
2018-11-03T05:14:53.536Z,10.08
2018-11-03T05:17:21.719Z,11.28
2018-11-03T05:19:49.894Z,9.18
2018-11-03T05:22:18.006Z,8.48
2018-11-03T05:24:46.175Z,10.70
2018-11-03T05:27:14.370Z,10.15
2018-11-03T05:29:42.547Z,11.10
2018-11-03T05:32:10.746Z,10.08
2018-11-03T05:34:38.928Z,13.98
2018-11-03T05:37:07.247Z,11.43
2018-11-03T05:39:35.389Z,10.25
2018-11-03T05:42:03.486Z,10.13
2018-11-03T05:44:31.662Z,9.98
2018-11-03T05:46:59.757Z,9.28
2018-11-03T05:49:27.934Z,9.08
2018-11-03T05:51:56.958Z,12.85
2018-11-03T05:54:25.122Z,13.35
2018-11-03T05:56:53.225Z,13.03
2018-11-03T05:59:21.399Z,11.75
2018-11-03T06:01:49.494Z,12.58
2018-11-03T06:04:17.678Z,13.80
2018-11-03T06:06:45.762Z,14.05
2018-11-03T06:09:14.024Z,10.88
2018-11-03T06:11:42.136Z,10.80
2018-11-03T06:14:10.323Z,13.18
2018-11-03T06:16:38.513Z,10.78
2018-11-03T06:19:06.729Z,10.10
2018-11-03T06:21:35.018Z,13.18
2018-11-03T06:24:03.167Z,8.40
2018-11-03T06:26:31.261Z,16.05
2018-11-03T06:28:59.446Z,12.00
2018-11-03T06:31:27.630Z,13.95
2018-11-03T06:33:55.821Z,9.75
2018-11-03T06:36:23.934Z,11.88
2018-11-03T06:38:52.119Z,13.65
2018-11-03T06:41:20.187Z,10.55
2018-11-03T06:43:48.366Z,9.90
2018-11-03T06:46:16.552Z,11.78
2018-11-03T06:48:44.732Z,12.23
2018-11-03T06:51:12.818Z,11.45
2018-11-03T06:53:41.022Z,9.05
2018-11-03T06:56:09.126Z,9.35
2018-11-03T06:58:37.258Z,8.88
2018-11-03T07:01:05.494Z,10.03
2018-11-03T07:03:33.682Z,12.00
2018-11-03T07:06:01.850Z,15.58
2018-11-03T07:08:30.039Z,13.35
2018-11-03T07:10:58.215Z,15.75
2018-11-03T07:13:26.545Z,19.92
2018-11-03T07:15:54.591Z,19.80
2018-11-03T07:18:22.780Z,16.32
2018-11-03T07:20:50.962Z,14.65
2018-11-03T07:23:19.181Z,13.45
2018-11-03T07:25:47.323Z,14.70
2018-11-03T07:28:15.422Z,13.88
2018-11-03T07:30:43.662Z,12.55
2018-11-03T07:33:11.794Z,14.60
2018-11-03T07:35:39.990Z,15.72
2018-11-03T07:38:08.182Z,16.52
2018-11-03T07:40:36.368Z,15.93
2018-11-03T07:43:04.543Z,18.15
2018-11-03T07:45:32.723Z,21.23
2018-11-03T07:48:01.010Z,19.55
2018-11-03T07:50:29.106Z,18.70
2018-11-03T07:52:57.298Z,15.30
2018-11-03T07:55:25.490Z,17.48
2018-11-03T07:57:53.666Z,14.23
2018-11-03T08:00:21.940Z,21.20
2018-11-03T08:02:50.049Z,22.95
2018-11-03T08:05:18.222Z,19.23
2018-11-03T08:07:46.429Z,21.20
2018-11-03T08:10:14.639Z,28.77
2018-11-03T08:12:42.825Z,23.80
2018-11-03T08:15:11.505Z,26.75
2018-11-03T08:17:40.310Z,20.72
2018-11-03T08:20:09.927Z,21.10
2018-11-03T08:22:38.252Z,19.62
2018-11-03T08:25:06.507Z,22.82
2018-11-03T08:27:34.667Z,22.95
2018-11-03T08:30:02.751Z,19.55
2018-11-03T08:32:30.844Z,20.82
2018-11-03T08:34:59.014Z,21.80
2018-11-03T08:37:27.113Z,21.93
2018-11-03T08:39:55.278Z,19.27
2018-11-03T08:42:23.374Z,22.48
2018-11-03T08:44:51.478Z,16.45
2018-11-03T08:47:19.661Z,19.70
2018-11-03T08:49:47.874Z,19.35
2018-11-03T08:52:16.027Z,16.52
2018-11-03T08:54:44.203Z,23.10
2018-11-03T08:57:12.292Z,16.27
2018-11-03T08:59:40.494Z,21.48
2018-11-03T09:02:08.491Z,17.82
2018-11-03T09:04:36.680Z,20.02
2018-11-03T09:07:04.888Z,17.23
2018-11-03T09:09:33.037Z,21.17
2018-11-03T09:12:01.250Z,22.32
2018-11-03T09:14:29.441Z,17.50
2018-11-03T09:16:57.510Z,17.65
2018-11-03T09:19:25.744Z,17.80
2018-11-03T09:21:53.917Z,16.85
2018-11-03T09:24:22.038Z,19.62
2018-11-03T09:26:50.138Z,18.17
2018-11-03T09:29:18.372Z,17.45
2018-11-03T09:31:46.538Z,17.65
2018-11-03T09:34:15.281Z,17.60
2018-11-03T09:36:43.385Z,16.07
2018-11-03T09:39:11.887Z,18.12
2018-11-03T09:41:40.202Z,18.87
2018-11-03T09:44:08.362Z,20.88
2018-11-03T09:46:36.550Z,23.10
2018-11-03T09:49:05.210Z,18.73
2018-11-03T09:51:33.318Z,16.32
2018-11-03T09:54:01.410Z,13.53
2018-11-03T09:56:29.606Z,14.73
2018-11-03T09:58:57.682Z,15.60
2018-11-03T10:01:25.870Z,14.40
2018-11-03T10:03:54.066Z,18.17
2018-11-03T10:06:22.311Z,16.25
2018-11-03T10:08:50.437Z,15.10
2018-11-03T10:11:18.507Z,13.43
2018-11-03T10:13:46.714Z,16.12
2018-11-03T10:16:14.894Z,14.30
2018-11-03T10:18:43.219Z,16.55
2018-11-03T10:21:11.377Z,12.33
2018-11-03T10:23:39.566Z,14.35
2018-11-03T10:26:07.743Z,15.68
2018-11-03T10:28:36.115Z,14.47
2018-11-03T10:31:04.295Z,16.82
2018-11-03T10:33:32.433Z,21.95
2018-11-03T10:36:00.602Z,66.62
2018-11-03T10:38:28.782Z,29.85
2018-11-03T10:40:56.974Z,17.15
2018-11-03T10:43:25.162Z,14.35
2018-11-03T10:45:53.386Z,15.63
2018-11-03T10:48:21.540Z,18.27
2018-11-03T10:50:49.718Z,13.28
2018-11-03T10:53:17.940Z,14.30
2018-11-03T10:55:46.081Z,13.90
2018-11-03T10:58:14.281Z,16.17
2018-11-03T11:00:47.877Z,14.47
2018-11-03T11:03:21.466Z,12.15
2018-11-03T11:05:56.806Z,14.95
2018-11-03T11:08:30.773Z,12.28
2018-11-03T11:11:04.554Z,15.50
2018-11-03T11:13:34.453Z,16.60
2018-11-03T11:16:02.625Z,14.47
2018-11-03T11:18:30.810Z,13.03
2018-11-03T11:20:58.983Z,17.85
2018-11-03T11:23:27.214Z,13.62
2018-11-03T11:25:55.376Z,12.93
2018-11-03T11:28:23.558Z,11.85
2018-11-03T11:30:51.758Z,12.90
2018-11-03T11:33:19.938Z,13.08
2018-11-03T11:35:48.144Z,11.08
2018-11-03T11:38:16.438Z,17.40
2018-11-03T11:40:44.609Z,14.70
2018-11-03T11:43:13.886Z,14.80
2018-11-03T11:45:41.880Z,9.85
2018-11-03T11:48:10.152Z,10.10
2018-11-03T11:50:38.261Z,12.30
2018-11-03T11:53:06.670Z,14.30
2018-11-03T11:55:34.846Z,12.43
2018-11-03T11:58:03.015Z,12.60
2018-11-03T12:00:31.282Z,10.20
2018-11-03T12:02:59.523Z,10.18
2018-11-03T12:05:27.746Z,15.75
2018-11-03T12:07:55.881Z,10.85
2018-11-03T12:10:24.068Z,9.50
2018-11-03T12:12:52.255Z,15.32
2018-11-03T12:15:20.446Z,14.25
2018-11-03T12:17:48.619Z,10.13
2018-11-03T12:20:16.711Z,14.33
2018-11-03T12:22:44.916Z,11.80
2018-11-03T12:25:13.094Z,12.13
2018-11-03T12:27:41.393Z,9.63
2018-11-03T12:30:12.034Z,12.70
2018-11-03T12:32:40.534Z,11.57
2018-11-03T12:35:08.861Z,8.40
2018-11-03T12:37:37.515Z,9.43
2018-11-03T12:40:07.783Z,10.13
2018-11-03T12:42:35.982Z,11.10
2018-11-03T12:45:04.130Z,10.15
2018-11-03T12:47:32.317Z,11.95
2018-11-03T12:50:01.350Z,12.20
2018-11-03T12:52:30.835Z,10.10
2018-11-03T12:54:59.278Z,12.95
2018-11-03T12:57:27.646Z,13.68
2018-11-03T12:59:55.787Z,9.88
2018-11-03T13:02:23.873Z,10.85
2018-11-03T13:04:52.397Z,9.90
2018-11-03T13:07:20.546Z,9.83
2018-11-03T13:09:48.974Z,8.03
2018-11-03T13:12:17.104Z,11.03
2018-11-03T13:14:45.218Z,11.35
2018-11-03T13:17:13.399Z,8.23
2018-11-03T13:19:41.609Z,13.75
2018-11-03T13:22:10.010Z,13.45
2018-11-03T13:24:38.206Z,9.70
2018-11-03T13:27:06.360Z,8.33
2018-11-03T13:29:34.542Z,10.68
2018-11-03T13:32:02.718Z,9.28
2018-11-03T13:34:30.930Z,7.72
2018-11-03T13:36:59.094Z,7.30
2018-11-03T13:39:27.298Z,10.32
2018-11-03T13:41:55.470Z,15.58
2018-11-03T13:44:23.663Z,9.18
2018-11-03T13:46:51.847Z,12.60
2018-11-03T13:49:20.034Z,8.28
2018-11-03T13:51:49.170Z,7.78
2018-11-03T13:54:17.330Z,7.45
2018-11-03T13:56:45.538Z,8.53
2018-11-03T13:59:13.714Z,14.10
2018-11-03T14:01:41.906Z,8.15
2018-11-03T14:04:10.098Z,11.63
2018-11-03T14:06:38.266Z,9.98
2018-11-03T14:09:07.458Z,13.03
2018-11-03T14:11:35.555Z,10.68
2018-11-03T14:14:03.753Z,11.68
2018-11-03T14:16:31.956Z,9.85
2018-11-03T14:19:00.133Z,8.08
2018-11-03T14:21:28.317Z,9.78
2018-11-03T14:23:56.490Z,7.42
2018-11-03T14:26:24.682Z,10.75
2018-11-03T14:28:52.913Z,8.43
2018-11-03T14:31:21.050Z,10.18
2018-11-03T14:33:49.242Z,9.88
2018-11-03T14:36:17.501Z,10.80
2018-11-03T14:38:45.618Z,10.85
2018-11-03T14:41:13.799Z,11.10
2018-11-03T14:43:41.986Z,10.08
2018-11-03T14:46:10.190Z,9.63
2018-11-03T14:48:38.366Z,10.90
2018-11-03T14:51:06.622Z,11.33
2018-11-03T14:53:34.738Z,14.98
2018-11-03T14:56:02.931Z,14.58
2018-11-03T14:58:31.111Z,8.93
2018-11-03T15:00:59.301Z,10.80
2018-11-03T15:03:27.482Z,11.43
2018-11-03T15:05:55.674Z,12.30
2018-11-03T15:08:23.856Z,13.25
2018-11-03T15:10:52.045Z,9.80
2018-11-03T15:13:20.227Z,11.65
2018-11-03T15:15:48.318Z,11.35
2018-11-03T15:18:16.485Z,8.03
2018-11-03T15:20:44.586Z,12.37
2018-11-03T15:23:12.754Z,9.53
2018-11-03T15:25:40.865Z,15.08
2018-11-03T15:28:09.026Z,10.55
2018-11-03T15:30:37.123Z,9.65
2018-11-03T15:33:05.698Z,8.85
2018-11-03T15:35:33.810Z,8.00
2018-11-03T15:38:01.978Z,7.62
2018-11-03T15:40:30.086Z,10.35
2018-11-03T15:42:58.258Z,10.15
2018-11-03T15:45:26.354Z,11.15
2018-11-03T15:47:54.556Z,7.90
2018-11-03T15:50:22.723Z,6.80
2018-11-03T15:52:50.899Z,7.70
2018-11-03T15:55:19.000Z,9.55
2018-11-03T15:57:47.061Z,10.45
2018-11-03T16:00:16.726Z,9.18
2018-11-03T16:02:45.318Z,9.40
2018-11-03T16:05:13.618Z,11.43
2018-11-03T16:07:42.003Z,6.87
2018-11-03T16:10:10.911Z,9.30
2018-11-03T16:12:39.261Z,8.90
2018-11-03T16:15:08.293Z,10.53
2018-11-03T16:17:36.449Z,11.63
2018-11-03T16:20:05.234Z,11.15
2018-11-03T16:22:33.373Z,10.98
2018-11-03T16:25:01.559Z,6.70
2018-11-03T16:27:29.721Z,11.38
2018-11-03T16:29:57.894Z,6.10
2018-11-03T16:32:26.154Z,8.15
2018-11-03T16:34:54.169Z,6.22
2018-11-03T16:37:22.253Z,9.18
2018-11-03T16:39:50.337Z,7.05
2018-11-03T16:42:18.430Z,9.13
2018-11-03T16:44:46.505Z,6.35
2018-11-03T16:47:14.598Z,9.20
2018-11-03T16:49:42.674Z,9.05
2018-11-03T16:52:10.766Z,8.55
2018-11-03T16:54:38.849Z,7.95
2018-11-03T16:57:06.943Z,10.80
2018-11-03T16:59:35.118Z,15.63
2018-11-03T17:02:03.238Z,41.68
2018-11-03T17:04:31.408Z,75.35
2018-11-03T17:06:59.678Z,54.73
2018-11-03T17:09:27.786Z,41.15
2018-11-03T17:11:55.956Z,28.57
2018-11-03T17:14:24.151Z,31.12
2018-11-03T17:16:52.342Z,29.60
2018-11-03T17:19:20.534Z,23.92
2018-11-03T17:21:48.617Z,17.45
2018-11-03T17:24:16.797Z,17.12
2018-11-03T17:26:44.992Z,11.48
2018-11-03T17:29:13.180Z,11.63
2018-11-03T17:31:41.419Z,14.10
2018-11-03T17:34:09.538Z,9.88
2018-11-03T17:36:37.750Z,10.70
2018-11-03T17:39:07.753Z,9.03
2018-11-03T17:41:35.942Z,7.78
2018-11-03T17:44:04.399Z,10.95
2018-11-03T17:46:32.574Z,9.38
2018-11-03T17:49:00.716Z,11.45
2018-11-03T17:51:28.801Z,12.93
2018-11-03T17:53:56.973Z,14.33
2018-11-03T17:56:25.070Z,10.85
2018-11-03T17:58:53.247Z,14.47
2018-11-03T18:01:21.524Z,9.10
2018-11-03T18:03:49.517Z,10.53
2018-11-03T18:06:17.696Z,14.18
2018-11-03T18:08:45.790Z,11.53
2018-11-03T18:11:13.878Z,14.50
2018-11-03T18:13:42.062Z,11.38
2018-11-03T18:16:10.158Z,15.53
2018-11-03T18:18:38.342Z,15.13
2018-11-03T18:21:06.536Z,12.10
2018-11-03T18:23:34.717Z,10.63
2018-11-03T18:26:02.969Z,10.90
2018-11-03T18:28:31.163Z,14.80
2018-11-03T18:30:59.351Z,13.55
2018-11-03T18:33:27.636Z,12.20
2018-11-03T18:35:55.646Z,15.85
2018-11-03T18:38:23.854Z,14.10
2018-11-03T18:40:52.015Z,13.53
2018-11-03T18:43:20.128Z,15.68
2018-11-03T18:45:48.289Z,12.45
2018-11-03T18:48:16.398Z,15.32
2018-11-03T18:50:44.573Z,11.05
2018-11-03T18:53:12.770Z,13.53
2018-11-03T18:55:40.949Z,12.25
2018-11-03T18:58:09.131Z,16.82
2018-11-03T19:00:37.308Z,13.18
2018-11-03T19:03:05.421Z,16.50
2018-11-03T19:05:33.643Z,16.40
2018-11-03T19:08:01.770Z,16.37
2018-11-03T19:10:30.019Z,12.90
2018-11-03T19:12:58.178Z,13.72
2018-11-03T19:15:26.336Z,15.83
2018-11-03T19:17:54.522Z,17.23
2018-11-03T19:20:22.706Z,17.82
2018-11-03T19:22:50.791Z,15.75
2018-11-03T19:25:18.983Z,14.65
2018-11-03T19:27:47.172Z,16.48
2018-11-03T19:30:15.435Z,14.85
2018-11-03T19:32:44.489Z,16.57
2018-11-03T19:35:12.641Z,17.42
2018-11-03T19:37:41.441Z,19.20
2018-11-03T19:40:10.894Z,14.33
2018-11-03T19:42:39.598Z,15.23
2018-11-03T19:45:07.753Z,18.77
2018-11-03T19:47:36.078Z,15.30
2018-11-03T19:50:04.810Z,15.58
2018-11-03T19:52:32.966Z,18.32
2018-11-03T19:55:01.110Z,18.70
2018-11-03T19:57:29.306Z,17.27
2018-11-03T19:59:57.478Z,19.65
2018-11-03T20:02:25.599Z,14.87
2018-11-03T20:04:53.758Z,14.95
2018-11-03T20:07:21.954Z,16.42
2018-11-03T20:09:50.134Z,16.50
2018-11-03T20:12:18.336Z,19.30
2018-11-03T20:14:46.515Z,14.53
2018-11-03T20:17:14.707Z,16.75
2018-11-03T20:19:42.882Z,16.87
2018-11-03T20:22:11.078Z,12.82
2018-11-03T20:24:39.253Z,15.78
2018-11-03T20:27:07.438Z,15.40
2018-11-03T20:29:35.641Z,12.68
2018-11-03T20:32:03.939Z,16.57
2018-11-03T20:34:32.006Z,22.05
2018-11-03T20:37:00.187Z,20.55
2018-11-03T20:39:28.378Z,15.50
2018-11-03T20:41:56.633Z,17.17
2018-11-03T20:44:24.751Z,16.42
2018-11-03T20:46:52.934Z,18.82
2018-11-03T20:49:21.130Z,17.50
2018-11-03T20:51:49.310Z,17.48
2018-11-03T20:54:17.507Z,17.55
2018-11-03T20:56:45.690Z,18.27
2018-11-03T20:59:13.879Z,20.27
2018-11-03T21:01:42.107Z,17.52
2018-11-03T21:04:10.177Z,15.93
2018-11-03T21:06:38.570Z,14.25
2018-11-03T21:09:07.773Z,19.05
2018-11-03T21:11:35.928Z,20.72
2018-11-03T21:14:04.186Z,20.55
2018-11-03T21:16:32.406Z,15.88
2018-11-03T21:19:00.507Z,19.75
2018-11-03T21:21:28.702Z,22.60
2018-11-03T21:23:56.930Z,16.52
2018-11-03T21:26:25.051Z,22.50
2018-11-03T21:28:53.473Z,17.85
2018-11-03T21:31:21.631Z,15.32
2018-11-03T21:33:49.833Z,14.70
2018-11-03T21:36:17.994Z,22.55
2018-11-03T21:38:46.162Z,15.23
2018-11-03T21:41:14.286Z,19.37
2018-11-03T21:43:43.514Z,18.23
2018-11-03T21:46:11.800Z,16.73
2018-11-03T21:48:39.866Z,15.58
2018-11-03T21:51:08.066Z,15.18
2018-11-03T21:53:36.241Z,20.35
2018-11-03T21:56:04.777Z,18.20
2018-11-03T21:58:32.831Z,21.82
2018-11-03T22:01:00.989Z,14.30
2018-11-03T22:03:29.093Z,16.05
2018-11-03T22:05:57.278Z,19.10
2018-11-03T22:08:25.463Z,17.55
2018-11-03T22:10:53.643Z,20.43
2018-11-03T22:13:21.833Z,21.17
2018-11-03T22:15:50.090Z,19.30
2018-11-03T22:18:18.106Z,19.50
2018-11-03T22:20:46.297Z,18.50
2018-11-03T22:23:14.493Z,16.10
2018-11-03T22:25:42.666Z,22.48
2018-11-03T22:28:10.883Z,16.77
2018-11-03T22:30:39.061Z,16.02
2018-11-03T22:33:07.223Z,19.05
2018-11-03T22:35:35.418Z,17.90
2018-11-03T22:38:03.603Z,17.20
2018-11-03T22:40:31.814Z,16.73
2018-11-03T22:42:59.971Z,19.02
2018-11-03T22:45:28.161Z,16.37
2018-11-03T22:47:56.349Z,17.02
2018-11-03T22:50:24.543Z,18.27
2018-11-03T22:52:52.714Z,19.35
2018-11-03T22:55:20.807Z,18.67
2018-11-03T22:57:49.012Z,19.15
2018-11-03T23:00:17.306Z,21.02
2018-11-03T23:02:45.474Z,16.90
2018-11-03T23:05:14.099Z,18.60
2018-11-03T23:07:42.393Z,16.37
2018-11-03T23:10:11.472Z,19.92
2018-11-03T23:12:39.720Z,20.00
2018-11-03T23:15:08.379Z,17.50
2018-11-03T23:17:36.536Z,22.82
2018-11-03T23:20:06.281Z,20.97
2018-11-03T23:22:34.346Z,20.23
2018-11-03T23:25:02.538Z,20.97
2018-11-03T23:27:30.709Z,16.27
2018-11-03T23:29:59.140Z,14.53
2018-11-03T23:32:27.094Z,17.23
2018-11-03T23:34:55.286Z,16.82
2018-11-03T23:37:23.470Z,18.25
2018-11-03T23:39:51.657Z,18.48
2018-11-03T23:42:19.838Z,21.27
2018-11-03T23:44:48.053Z,20.08
2018-11-03T23:47:16.206Z,15.80
2018-11-03T23:49:44.402Z,16.80
2018-11-03T23:52:12.582Z,21.62
2018-11-03T23:54:40.790Z,18.45
2018-11-03T23:57:08.966Z,19.52
2018-11-03T23:59:37.162Z,15.90
